Temperature high / low / average

Untitled Document

Page created: 27 May 2019 02:32. Refresh page to update.

Outdoor Temperature

High Low Average
Outdoor temperature in the last hour: 10.3°C at 02:31 9.8°C at 01:01 10.3°C
Outdoor temperature today: 10.3°C at 02:31 9.6°C at 00:22 10.0°C
Outdoor temperature in last 24 hours: 17.8°C at 14:24 9.6°C at 00:22 14.0°C
Outdoor temperature yesterday: 17.8°C at 14:24 9.7°C at 23:50 14.5°C
Outdoor temperature the day before yesterday: 19.7°C at 13:22 11.1°C at 06:35 14.9°C
Outdoor temperature this week: 17.8°C at 26 May 2019 14:24 9.6°C at 27 May 2019 00:22 14.0°C
Outdoor temperature in last 7 days: 20.2°C at 23 May 2019 16:11 6.6°C at 22 May 2019 03:51 13.6°C
Outdoor temperature last week: 20.2°C at 23 May 2019 16:11 6.6°C at 22 May 2019 03:51 13.3°C
Outdoor temperature this month: 20.2°C at 23 May 2019 16:11 0.4°C at 5 May 2019 05:01 10.6°C
Outdoor temperature last month: 22.2°C at 20 Apr 2019 17:02 -0.3°C at 13 Apr 2019 06:15 8.6°C
Outdoor temperature this year: 22.2°C at 20 Apr 2019 17:02 -6.7°C at 31 Jan 2019 08:20 7.3°C
Outdoor temperature last year: 31.0°C at 26 Jul 2018 17:35 -6.3°C at 28 Feb 2018 02:09 10.1°C
Outdoor temperature of all time: 31.0°C at 26 Jul 2018 17:35 -11.6°C at 7 Dec 2010 03:21 9.5°C

Dew Point

High Low Average
Dew point in the last hour: 7.9°C at 02:04 7.0°C at 01:01 7.7°C
Dew point today: 7.9°C at 02:04 6.9°C at 00:22 7.4°C
Dew point in last 24 hours: 15.6°C at 12:52 6.6°C at 23:42 10.6°C
Dew point yesterday: 15.6°C at 12:52 6.6°C at 23:42 11.1°C
Dew point the day before yesterday: 12.6°C at 20:47 5.4°C at 12:36 10.0°C
Dew point this week: 15.6°C at 26 May 2019 12:52 6.6°C at 26 May 2019 23:42 10.7°C
Dew point in last 7 days: 15.6°C at 26 May 2019 12:52 3.1°C at 21 May 2019 19:55 8.7°C
Dew point last week: 12.6°C at 25 May 2019 20:47 3.1°C at 21 May 2019 19:55 8.4°C
Dew point this month: 15.6°C at 26 May 2019 12:52 -1.0°C at 5 May 2019 05:01 6.6°C
Dew point last month: 13.8°C at 24 Apr 2019 15:11 -2.8°C at 14 Apr 2019 05:00 4.6°C
Dew point this year: 15.6°C at 26 May 2019 12:52 -7.7°C at 31 Jan 2019 08:23 4.3°C
Dew point last year: 19.5°C at 26 Jul 2018 17:01 -8.8°C at 28 Feb 2018 17:19 7.2°C
Dew point of all time: 21.6°C at 1 Aug 2013 14:05 -12.9°C at 7 Dec 2010 03:12 6.8°C

Wind Chill

High Low Average
Wind chill in the last hour: 9.6°C at 01:00 8.8°C at 01:45 9.3°C
Wind chill today: 9.7°C at 00:47 8.8°C at 01:45 9.4°C
Wind chill in last 24 hours: 17.8°C at 14:24 8.8°C at 01:45 13.5°C
Wind chill yesterday: 17.8°C at 14:24 9.4°C at 23:49 14.0°C
Wind chill the day before yesterday: 19.7°C at 13:22 10.4°C at 07:00 14.9°C
Wind chill this week: 17.8°C at 26 May 2019 14:24 8.8°C at 27 May 2019 01:45 13.5°C
Wind chill in last 7 days: 20.2°C at 23 May 2019 16:11 6.6°C at 22 May 2019 03:51 13.5°C
Wind chill last week: 20.2°C at 23 May 2019 16:11 6.6°C at 22 May 2019 03:51 13.2°C
Wind chill this month: 20.2°C at 23 May 2019 16:11 0.4°C at 5 May 2019 05:01 10.4°C
Wind chill last month: 22.2°C at 20 Apr 2019 17:02 -3.0°C at 4 Apr 2019 06:54 7.7°C
Wind chill this year: 22.2°C at 20 Apr 2019 17:02 -6.7°C at 31 Jan 2019 08:20 6.3°C
Wind chill last year: 31.0°C at 26 Jul 2018 17:35 -12.4°C at 28 Feb 2018 21:38 9.3°C
Wind chill of all time: 31.0°C at 26 Jul 2018 17:35 -13.2°C at 7 Dec 2010 02:28 8.9°C

Heat Index

High Low Average
Heat index in the last hour: 10.3°C at 02:31 9.8°C at 01:01 10.3°C
Heat index today: 10.3°C at 02:31 9.6°C at 00:22 10.0°C
Heat index in last 24 hours: 17.8°C at 14:24 9.6°C at 00:22 14.0°C
Heat index yesterday: 17.8°C at 14:24 9.7°C at 23:50 14.5°C
Heat index the day before yesterday: 19.7°C at 13:22 11.1°C at 06:35 14.9°C
Heat index this week: 17.8°C at 26 May 2019 14:24 9.6°C at 27 May 2019 00:22 14.0°C
Heat index in last 7 days: 20.2°C at 23 May 2019 16:11 6.6°C at 22 May 2019 03:51 13.6°C
Heat index last week: 20.2°C at 23 May 2019 16:11 6.6°C at 22 May 2019 03:51 13.3°C
Heat index this month: 20.2°C at 23 May 2019 16:11 0.4°C at 5 May 2019 05:01 10.6°C
Heat index last month: 22.2°C at 20 Apr 2019 17:04 -0.3°C at 13 Apr 2019 06:15 8.6°C
Heat index this year: 22.2°C at 20 Apr 2019 17:04 -6.7°C at 31 Jan 2019 08:20 7.4°C
Heat index last year: 31.9°C at 26 Jul 2018 16:29 -6.3°C at 28 Feb 2018 02:09 10.1°C
Heat index of all time: 32.3°C at 1 Aug 2013 17:40 -11.6°C at 7 Dec 2010 03:26 9.5°C

Humidex

High Low Average
Humidex in the last hour: 10.6°C at 02:00 10.3°C at 01:00 10.5°C
Humidex today: 10.6°C at 02:00 9.6°C at 00:00 10.2°C
Humidex in last 24 hours: 21.9°C at 12:00 9.6°C at 00:00 15.8°C
Humidex yesterday: 21.9°C at 12:00 9.6°C at 23:00 16.4°C
Humidex the day before yesterday: 21.5°C at 13:00 11.4°C at 07:00 16.3°C
Humidex this week: 21.9°C at 26 May 2019 12:00 9.6°C at 27 May 2019 00:00 15.8°C
Humidex in last 7 days: 21.9°C at 26 May 2019 12:00 5.7°C at 22 May 2019 03:00 14.3°C
Humidex last week: 21.5°C at 25 May 2019 13:00 5.7°C at 22 May 2019 03:00 13.9°C
Humidex this month: 21.9°C at 26 May 2019 12:00 -2.0°C at 5 May 2019 05:00 10.6°C
Humidex last month: 23.0°C at 20 Apr 2019 17:00 -3.0°C at 13 Apr 2019 05:00 7.9°C
Humidex this year: 23.0°C at 20 Apr 2019 17:00 -10.3°C at 31 Jan 2019 08:00 6.5°C

Indoor Temperature

High Low Average
Indoor temperature in the last hour: 26.0°C at 01:00 25.6°C at 02:26 25.7°C
Indoor temperature today: 26.2°C at 00:19 25.6°C at 02:26 25.9°C
Indoor temperature in last 24 hours: 28.6°C at 16:34 25.6°C at 02:26 27.1°C
Indoor temperature yesterday: 28.6°C at 16:34 26.2°C at 23:59 27.3°C
Indoor temperature the day before yesterday: 30.7°C at 08:45 25.3°C at 00:10 27.5°C
Indoor temperature this week: 28.6°C at 26 May 2019 16:34 25.6°C at 27 May 2019 02:26 27.1°C
Indoor temperature in last 7 days: 31.9°C at 24 May 2019 09:33 23.1°C at 22 May 2019 10:05 26.6°C
Indoor temperature last week: 31.9°C at 24 May 2019 09:33 22.8°C at 19 May 2019 05:37 26.3°C
Indoor temperature this month: 32.3°C at 14 May 2019 09:36 19.2°C at 4 May 2019 06:00 25.1°C
Indoor temperature last month: 31.9°C at 20 Apr 2019 11:35 18.8°C at 15 Apr 2019 06:19 24.4°C
Indoor temperature this year: 37.4°C at 25 Feb 2019 13:24 17.4°C at 1 Feb 2019 06:24 23.7°C
Indoor temperature last year: 38.3°C at 8 May 2018 13:07 10.3°C at 2 Mar 2018 07:00 24.4°C
Indoor temperature of all time: 38.3°C at 8 May 2018 13:07 10.0°C at 31 Dec 2011 23:00 9.6°C